Terminal Aerodrome Forecast
Issued by NWS

Home | Current Version | Previous Version | Text Only | Print | Product List | Glossary Off
Versions: 1 2 3 4 5 6 7 8 9 10 11 12 13 14 15

000
FTUS42 KMHX 062102 AAA
TAFOAJ
TAF AMD
KOAJ 062102Z 0621/0718 28005KT P6SM VCSH BKN011 OVC023
     FM062200 28005KT 3SM BR OVC007
     FM070300 28007KT 5SM BR SCT003 BKN007
     FM071300 34005KT P6SM SCT250
      AMD LTD TO CLD VIS AND WIND=

USA.gov is the U.S. government's official web portal to all federal, state and local government web resources and services.